sensor_id;sensor_type;location;lat;lon;timestamp;P1;durP1;ratioP1;P2;durP2;ratioP2
69789;SDS011;57064;52.046;4.800;2023-10-19T00:00:35;48.55;;;24.27;;
69789;SDS011;57064;52.046;4.800;2023-10-19T00:03:04;47.00;;;23.67;;
69789;SDS011;57064;52.046;4.800;2023-10-19T00:05:34;46.90;;;23.55;;
69789;SDS011;57064;52.046;4.800;2023-10-19T00:08:04;44.08;;;24.48;;
69789;SDS011;57064;52.046;4.800;2023-10-19T00:10:37;46.67;;;24.00;;
69789;SDS011;57064;52.046;4.800;2023-10-19T00:13:04;45.35;;;23.83;;
69789;SDS011;57064;52.046;4.800;2023-10-19T00:15:33;48.65;;;24.60;;
69789;SDS011;57064;52.046;4.800;2023-10-19T00:18:05;46.63;;;25.38;;
69789;SDS011;57064;52.046;4.800;2023-10-19T00:20:40;48.20;;;24.73;;
69789;SDS011;57064;52.046;4.800;2023-10-19T00:23:06;52.60;;;25.23;;
69789;SDS011;57064;52.046;4.800;2023-10-19T00:25:35;52.28;;;25.35;;
69789;SDS011;57064;52.046;4.800;2023-10-19T00:28:06;50.47;;;24.92;;
69789;SDS011;57064;52.046;4.800;2023-10-19T00:30:33;51.55;;;25.60;;
69789;SDS011;57064;52.046;4.800;2023-10-19T00:33:02;52.95;;;25.60;;
69789;SDS011;57064;52.046;4.800;2023-10-19T00:35:41;52.38;;;25.05;;
69789;SDS011;57064;52.046;4.800;2023-10-19T00:38:11;50.00;;;24.67;;
69789;SDS011;57064;52.046;4.800;2023-10-19T00:41:07;59.30;;;27.20;;
69789;SDS011;57064;52.046;4.800;2023-10-19T00:43:43;58.40;;;27.00;;
69789;SDS011;57064;52.046;4.800;2023-10-19T00:46:13;55.55;;;25.85;;
69789;SDS011;57064;52.046;4.800;2023-10-19T00:48:56;52.08;;;24.27;;
69789;SDS011;57064;52.046;4.800;2023-10-19T00:51:33;52.75;;;25.73;;
69789;SDS011;57064;52.046;4.800;2023-10-19T00:54:23;51.65;;;24.65;;
69789;SDS011;57064;52.046;4.800;2023-10-19T00:57:01;55.15;;;24.70;;
69789;SDS011;57064;52.046;4.800;2023-10-19T00:59:38;52.40;;;25.85;;
69789;SDS011;57064;52.046;4.800;2023-10-19T01:02:19;56.83;;;26.85;;
69789;SDS011;57064;52.046;4.800;2023-10-19T01:04:55;51.28;;;24.98;;
69789;SDS011;57064;52.046;4.800;2023-10-19T01:07:31;62.38;;;26.27;;
69789;SDS011;57064;52.046;4.800;2023-10-19T01:10:03;53.40;;;25.83;;
69789;SDS011;57064;52.046;4.800;2023-10-19T01:12:45;52.90;;;24.45;;
69789;SDS011;57064;52.046;4.800;2023-10-19T01:15:15;48.75;;;24.23;;
69789;SDS011;57064;52.046;4.800;2023-10-19T01:17:47;56.10;;;25.88;;
69789;SDS011;57064;52.046;4.800;2023-10-19T01:20:18;46.10;;;23.45;;
69789;SDS011;57064;52.046;4.800;2023-10-19T01:25:20;52.35;;;24.83;;
69789;SDS011;57064;52.046;4.800;2023-10-19T01:28:00;55.13;;;24.83;;
69789;SDS011;57064;52.046;4.800;2023-10-19T01:30:32;55.08;;;25.27;;
69789;SDS011;57064;52.046;4.800;2023-10-19T01:32:59;51.22;;;24.63;;
69789;SDS011;57064;52.046;4.800;2023-10-19T01:35:25;48.58;;;23.58;;
69789;SDS011;57064;52.046;4.800;2023-10-19T01:37:52;46.03;;;23.23;;
69789;SDS011;57064;52.046;4.800;2023-10-19T01:40:18;41.40;;;21.73;;
69789;SDS011;57064;52.046;4.800;2023-10-19T01:42:47;39.55;;;18.55;;
69789;SDS011;57064;52.046;4.800;2023-10-19T01:45:13;36.72;;;17.50;;
69789;SDS011;57064;52.046;4.800;2023-10-19T01:47:39;34.42;;;16.30;;
69789;SDS011;57064;52.046;4.800;2023-10-19T01:50:06;35.92;;;16.20;;
69789;SDS011;57064;52.046;4.800;2023-10-19T01:52:44;29.35;;;14.15;;
69789;SDS011;57064;52.046;4.800;2023-10-19T01:55:10;27.92;;;12.52;;
69789;SDS011;57064;52.046;4.800;2023-10-19T01:57:37;26.40;;;12.63;;
69789;SDS011;57064;52.046;4.800;2023-10-19T02:00:04;25.80;;;12.65;;
69789;SDS011;57064;52.046;4.800;2023-10-19T02:02:36;23.60;;;12.45;;
69789;SDS011;57064;52.046;4.800;2023-10-19T02:05:02;24.30;;;13.55;;
69789;SDS011;57064;52.046;4.800;2023-10-19T02:07:30;29.70;;;14.80;;
69789;SDS011;57064;52.046;4.800;2023-10-19T02:09:57;27.60;;;12.95;;
69789;SDS011;57064;52.046;4.800;2023-10-19T02:12:23;26.10;;;12.30;;
69789;SDS011;57064;52.046;4.800;2023-10-19T02:14:49;18.08;;;10.45;;
69789;SDS011;57064;52.046;4.800;2023-10-19T02:17:15;18.90;;;10.27;;
69789;SDS011;57064;52.046;4.800;2023-10-19T02:19:42;17.20;;;9.18;;
69789;SDS011;57064;52.046;4.800;2023-10-19T02:22:08;19.23;;;8.65;;
69789;SDS011;57064;52.046;4.800;2023-10-19T02:24:37;12.65;;;7.85;;
69789;SDS011;57064;52.046;4.800;2023-10-19T02:27:04;19.58;;;7.63;;
69789;SDS011;57064;52.046;4.800;2023-10-19T02:29:30;13.98;;;5.70;;
69789;SDS011;57064;52.046;4.800;2023-10-19T02:31:57;9.98;;;5.50;;
69789;SDS011;57064;52.046;4.800;2023-10-19T02:34:28;7.90;;;4.80;;
69789;SDS011;57064;52.046;4.800;2023-10-19T02:36:55;10.95;;;4.60;;
69789;SDS011;57064;52.046;4.800;2023-10-19T02:39:21;7.47;;;4.35;;
69789;SDS011;57064;52.046;4.800;2023-10-19T02:41:53;8.35;;;3.70;;
69789;SDS011;57064;52.046;4.800;2023-10-19T02:44:26;10.68;;;4.25;;
69789;SDS011;57064;52.046;4.800;2023-10-19T02:46:55;7.88;;;3.67;;
69789;SDS011;57064;52.046;4.800;2023-10-19T02:49:25;7.05;;;4.25;;
69789;SDS011;57064;52.046;4.800;2023-10-19T02:51:54;9.05;;;4.85;;
69789;SDS011;57064;52.046;4.800;2023-10-19T02:54:24;13.70;;;5.30;;
69789;SDS011;57064;52.046;4.800;2023-10-19T02:56:50;13.50;;;7.28;;
69789;SDS011;57064;52.046;4.800;2023-10-19T02:59:22;16.33;;;8.60;;
69789;SDS011;57064;52.046;4.800;2023-10-19T03:01:51;21.60;;;11.00;;
69789;SDS011;57064;52.046;4.800;2023-10-19T03:04:25;23.65;;;11.60;;
69789;SDS011;57064;52.046;4.800;2023-10-19T03:06:53;24.10;;;13.07;;
69789;SDS011;57064;52.046;4.800;2023-10-19T03:09:22;24.85;;;14.02;;
69789;SDS011;57064;52.046;4.800;2023-10-19T03:11:54;27.30;;;13.55;;
69789;SDS011;57064;52.046;4.800;2023-10-19T03:14:24;24.67;;;13.30;;
69789;SDS011;57064;52.046;4.800;2023-10-19T03:16:51;27.80;;;14.55;;
69789;SDS011;57064;52.046;4.800;2023-10-19T03:19:19;28.55;;;13.38;;
69789;SDS011;57064;52.046;4.800;2023-10-19T03:21:46;24.33;;;14.07;;
69789;SDS011;57064;52.046;4.800;2023-10-19T03:24:15;27.60;;;13.40;;
69789;SDS011;57064;52.046;4.800;2023-10-19T03:26:51;22.48;;;11.73;;
69789;SDS011;57064;52.046;4.800;2023-10-19T03:29:19;21.02;;;11.65;;
69789;SDS011;57064;52.046;4.800;2023-10-19T03:31:56;22.70;;;10.45;;
69789;SDS011;57064;52.046;4.800;2023-10-19T03:34:24;21.95;;;10.35;;
69789;SDS011;57064;52.046;4.800;2023-10-19T03:36:50;20.58;;;10.35;;
69789;SDS011;57064;52.046;4.800;2023-10-19T03:39:16;19.88;;;9.77;;
69789;SDS011;57064;52.046;4.800;2023-10-19T03:41:43;18.40;;;8.75;;
69789;SDS011;57064;52.046;4.800;2023-10-19T03:44:13;18.48;;;9.00;;
69789;SDS011;57064;52.046;4.800;2023-10-19T03:46:48;16.70;;;8.35;;
69789;SDS011;57064;52.046;4.800;2023-10-19T03:49:21;14.88;;;7.55;;
69789;SDS011;57064;52.046;4.800;2023-10-19T03:51:48;18.75;;;7.57;;
69789;SDS011;57064;52.046;4.800;2023-10-19T03:54:27;17.20;;;6.72;;
69789;SDS011;57064;52.046;4.800;2023-10-19T03:56:54;14.65;;;6.47;;
69789;SDS011;57064;52.046;4.800;2023-10-19T03:59:22;14.68;;;6.88;;
69789;SDS011;57064;52.046;4.800;2023-10-19T04:04:20;11.68;;;6.00;;
69789;SDS011;57064;52.046;4.800;2023-10-19T04:06:46;9.80;;;5.10;;
69789;SDS011;57064;52.046;4.800;2023-10-19T04:09:13;8.23;;;4.55;;
69789;SDS011;57064;52.046;4.800;2023-10-19T04:11:43;8.48;;;3.45;;
69789;SDS011;57064;52.046;4.800;2023-10-19T04:14:16;8.90;;;4.13;;
69789;SDS011;57064;52.046;4.800;2023-10-19T04:16:43;12.15;;;4.13;;
69789;SDS011;57064;52.046;4.800;2023-10-19T04:19:10;8.77;;;3.75;;
69789;SDS011;57064;52.046;4.800;2023-10-19T04:21:36;9.57;;;3.55;;
69789;SDS011;57064;52.046;4.800;2023-10-19T04:24:09;5.40;;;2.92;;
69789;SDS011;57064;52.046;4.800;2023-10-19T04:26:35;12.38;;;3.25;;
69789;SDS011;57064;52.046;4.800;2023-10-19T04:29:05;6.65;;;3.15;;
69789;SDS011;57064;52.046;4.800;2023-10-19T04:31:38;8.52;;;2.92;;
69789;SDS011;57064;52.046;4.800;2023-10-19T04:34:15;10.30;;;2.95;;
69789;SDS011;57064;52.046;4.800;2023-10-19T04:36:46;8.13;;;3.15;;
69789;SDS011;57064;52.046;4.800;2023-10-19T04:39:15;6.25;;;3.35;;
69789;SDS011;57064;52.046;4.800;2023-10-19T04:41:44;13.43;;;3.22;;
69789;SDS011;57064;52.046;4.800;2023-10-19T04:44:13;7.72;;;3.45;;
69789;SDS011;57064;52.046;4.800;2023-10-19T04:46:40;7.43;;;3.05;;
69789;SDS011;57064;52.046;4.800;2023-10-19T04:49:07;9.48;;;3.85;;
69789;SDS011;57064;52.046;4.800;2023-10-19T04:51:33;9.93;;;2.88;;
69789;SDS011;57064;52.046;4.800;2023-10-19T04:54:03;10.40;;;3.03;;
69789;SDS011;57064;52.046;4.800;2023-10-19T04:56:33;7.55;;;3.42;;
69789;SDS011;57064;52.046;4.800;2023-10-19T04:59:01;13.50;;;3.60;;
69789;SDS011;57064;52.046;4.800;2023-10-19T05:01:27;6.10;;;2.50;;
69789;SDS011;57064;52.046;4.800;2023-10-19T05:03:54;9.05;;;3.22;;
69789;SDS011;57064;52.046;4.800;2023-10-19T05:06:20;13.18;;;3.15;;
69789;SDS011;57064;52.046;4.800;2023-10-19T05:08:47;16.00;;;3.38;;
69789;SDS011;57064;52.046;4.800;2023-10-19T05:11:13;8.30;;;2.97;;
69789;SDS011;57064;52.046;4.800;2023-10-19T05:13:39;9.90;;;2.63;;
69789;SDS011;57064;52.046;4.800;2023-10-19T05:16:05;11.38;;;2.63;;
69789;SDS011;57064;52.046;4.800;2023-10-19T05:18:32;10.98;;;3.17;;
69789;SDS011;57064;52.046;4.800;2023-10-19T05:20:59;8.13;;;3.17;;
69789;SDS011;57064;52.046;4.800;2023-10-19T05:23:26;7.78;;;3.17;;
69789;SDS011;57064;52.046;4.800;2023-10-19T05:26:00;10.98;;;3.67;;
69789;SDS011;57064;52.046;4.800;2023-10-19T05:28:28;11.93;;;3.08;;
69789;SDS011;57064;52.046;4.800;2023-10-19T05:30:54;10.63;;;3.05;;
69789;SDS011;57064;52.046;4.800;2023-10-19T05:33:20;12.52;;;3.40;;
69789;SDS011;57064;52.046;4.800;2023-10-19T05:35:48;11.98;;;3.25;;
69789;SDS011;57064;52.046;4.800;2023-10-19T05:38:15;7.15;;;3.45;;
69789;SDS011;57064;52.046;4.800;2023-10-19T05:40:44;12.93;;;3.97;;
69789;SDS011;57064;52.046;4.800;2023-10-19T05:43:10;7.65;;;3.55;;
69789;SDS011;57064;52.046;4.800;2023-10-19T05:45:37;11.98;;;4.53;;
69789;SDS011;57064;52.046;4.800;2023-10-19T05:48:04;11.88;;;3.33;;
69789;SDS011;57064;52.046;4.800;2023-10-19T05:50:31;11.13;;;3.50;;
69789;SDS011;57064;52.046;4.800;2023-10-19T05:53:02;8.77;;;3.20;;
69789;SDS011;57064;52.046;4.800;2023-10-19T05:55:29;8.65;;;3.13;;
69789;SDS011;57064;52.046;4.800;2023-10-19T05:57:56;8.45;;;3.17;;
69789;SDS011;57064;52.046;4.800;2023-10-19T06:00:22;9.35;;;3.20;;
69789;SDS011;57064;52.046;4.800;2023-10-19T06:02:50;12.30;;;3.78;;
69789;SDS011;57064;52.046;4.800;2023-10-19T06:05:17;11.20;;;3.17;;
69789;SDS011;57064;52.046;4.800;2023-10-19T06:07:44;9.35;;;3.17;;
69789;SDS011;57064;52.046;4.800;2023-10-19T06:10:12;12.20;;;4.07;;
69789;SDS011;57064;52.046;4.800;2023-10-19T06:12:47;12.10;;;3.67;;
69789;SDS011;57064;52.046;4.800;2023-10-19T06:15:15;11.52;;;3.25;;
69789;SDS011;57064;52.046;4.800;2023-10-19T06:17:42;7.20;;;2.88;;
69789;SDS011;57064;52.046;4.800;2023-10-19T06:20:10;10.02;;;3.83;;
69789;SDS011;57064;52.046;4.800;2023-10-19T06:22:50;16.30;;;3.45;;
69789;SDS011;57064;52.046;4.800;2023-10-19T06:25:17;11.45;;;3.33;;
69789;SDS011;57064;52.046;4.800;2023-10-19T06:27:45;11.20;;;3.55;;
69789;SDS011;57064;52.046;4.800;2023-10-19T06:30:12;9.77;;;3.10;;
69789;SDS011;57064;52.046;4.800;2023-10-19T06:32:43;6.97;;;3.47;;
69789;SDS011;57064;52.046;4.800;2023-10-19T06:35:13;18.20;;;3.70;;
69789;SDS011;57064;52.046;4.800;2023-10-19T06:37:39;7.88;;;3.30;;
69789;SDS011;57064;52.046;4.800;2023-10-19T06:40:05;7.00;;;3.13;;
69789;SDS011;57064;52.046;4.800;2023-10-19T06:42:32;7.22;;;3.25;;
69789;SDS011;57064;52.046;4.800;2023-10-19T06:45:00;10.73;;;3.72;;
69789;SDS011;57064;52.046;4.800;2023-10-19T06:47:26;12.70;;;3.95;;
69789;SDS011;57064;52.046;4.800;2023-10-19T06:49:53;11.05;;;4.80;;
69789;SDS011;57064;52.046;4.800;2023-10-19T06:52:21;7.53;;;4.47;;
69789;SDS011;57064;52.046;4.800;2023-10-19T06:54:47;10.02;;;4.43;;
69789;SDS011;57064;52.046;4.800;2023-10-19T06:57:13;7.28;;;3.70;;
69789;SDS011;57064;52.046;4.800;2023-10-19T06:59:39;10.48;;;3.60;;
69789;SDS011;57064;52.046;4.800;2023-10-19T07:02:05;10.93;;;3.03;;
69789;SDS011;57064;52.046;4.800;2023-10-19T07:04:33;6.35;;;3.13;;
69789;SDS011;57064;52.046;4.800;2023-10-19T07:06:59;6.78;;;2.58;;
69789;SDS011;57064;52.046;4.800;2023-10-19T07:09:26;12.70;;;4.00;;
69789;SDS011;57064;52.046;4.800;2023-10-19T07:11:52;7.57;;;3.03;;
69789;SDS011;57064;52.046;4.800;2023-10-19T07:14:19;7.88;;;2.47;;
69789;SDS011;57064;52.046;4.800;2023-10-19T07:16:47;7.90;;;2.63;;
69789;SDS011;57064;52.046;4.800;2023-10-19T07:19:15;8.55;;;2.47;;
69789;SDS011;57064;52.046;4.800;2023-10-19T07:21:41;6.05;;;3.03;;
69789;SDS011;57064;52.046;4.800;2023-10-19T07:24:08;8.65;;;3.90;;
69789;SDS011;57064;52.046;4.800;2023-10-19T07:26:36;8.25;;;3.53;;
69789;SDS011;57064;52.046;4.800;2023-10-19T07:29:08;12.45;;;3.30;;
69789;SDS011;57064;52.046;4.800;2023-10-19T07:31:35;12.82;;;3.50;;
69789;SDS011;57064;52.046;4.800;2023-10-19T07:34:01;9.93;;;3.35;;
69789;SDS011;57064;52.046;4.800;2023-10-19T07:36:28;6.45;;;2.22;;
69789;SDS011;57064;52.046;4.800;2023-10-19T07:38:56;7.57;;;2.78;;
69789;SDS011;57064;52.046;4.800;2023-10-19T07:41:22;7.07;;;2.90;;
69789;SDS011;57064;52.046;4.800;2023-10-19T07:43:48;4.75;;;1.88;;
69789;SDS011;57064;52.046;4.800;2023-10-19T07:46:14;4.07;;;2.30;;
69789;SDS011;57064;52.046;4.800;2023-10-19T07:48:40;10.73;;;2.33;;
69789;SDS011;57064;52.046;4.800;2023-10-19T07:51:07;6.60;;;2.00;;
69789;SDS011;57064;52.046;4.800;2023-10-19T07:53:36;11.00;;;2.33;;
69789;SDS011;57064;52.046;4.800;2023-10-19T07:56:02;5.82;;;1.60;;
69789;SDS011;57064;52.046;4.800;2023-10-19T07:58:28;9.40;;;2.13;;
69789;SDS011;57064;52.046;4.800;2023-10-19T08:00:55;7.45;;;2.60;;
69789;SDS011;57064;52.046;4.800;2023-10-19T08:03:21;14.15;;;3.55;;
69789;SDS011;57064;52.046;4.800;2023-10-19T08:05:47;6.85;;;2.88;;
69789;SDS011;57064;52.046;4.800;2023-10-19T08:08:14;7.25;;;2.22;;
69789;SDS011;57064;52.046;4.800;2023-10-19T08:10:40;9.60;;;2.25;;
69789;SDS011;57064;52.046;4.800;2023-10-19T08:13:06;10.07;;;2.40;;
69789;SDS011;57064;52.046;4.800;2023-10-19T08:15:32;6.40;;;2.55;;
69789;SDS011;57064;52.046;4.800;2023-10-19T08:17:58;8.75;;;2.55;;
69789;SDS011;57064;52.046;4.800;2023-10-19T08:20:24;8.00;;;2.58;;
69789;SDS011;57064;52.046;4.800;2023-10-19T08:25:23;7.50;;;2.40;;
69789;SDS011;57064;52.046;4.800;2023-10-19T08:27:52;10.10;;;3.10;;
69789;SDS011;57064;52.046;4.800;2023-10-19T08:30:22;6.82;;;2.78;;
69789;SDS011;57064;52.046;4.800;2023-10-19T08:32:48;9.30;;;2.63;;
69789;SDS011;57064;52.046;4.800;2023-10-19T08:35:16;12.50;;;2.42;;
69789;SDS011;57064;52.046;4.800;2023-10-19T08:37:49;11.32;;;2.50;;
69789;SDS011;57064;52.046;4.800;2023-10-19T08:40:19;5.32;;;2.13;;
69789;SDS011;57064;52.046;4.800;2023-10-19T08:42:46;9.15;;;1.92;;
69789;SDS011;57064;52.046;4.800;2023-10-19T08:45:13;7.13;;;2.22;;
69789;SDS011;57064;52.046;4.800;2023-10-19T08:47:57;7.60;;;2.65;;
69789;SDS011;57064;52.046;4.800;2023-10-19T08:50:26;8.50;;;2.05;;
69789;SDS011;57064;52.046;4.800;2023-10-19T08:52:54;6.57;;;2.08;;
69789;SDS011;57064;52.046;4.800;2023-10-19T08:55:21;7.22;;;2.15;;
69789;SDS011;57064;52.046;4.800;2023-10-19T08:57:48;7.13;;;2.88;;
69789;SDS011;57064;52.046;4.800;2023-10-19T09:00:15;7.68;;;2.40;;
69789;SDS011;57064;52.046;4.800;2023-10-19T09:02:44;9.18;;;2.40;;
69789;SDS011;57064;52.046;4.800;2023-10-19T09:05:13;11.20;;;2.65;;
69789;SDS011;57064;52.046;4.800;2023-10-19T09:07:50;9.45;;;2.65;;
69789;SDS011;57064;52.046;4.800;2023-10-19T09:12:58;8.13;;;2.63;;
69789;SDS011;57064;52.046;4.800;2023-10-19T09:15:29;8.60;;;2.15;;
69789;SDS011;57064;52.046;4.800;2023-10-19T09:20:41;9.95;;;2.63;;
69789;SDS011;57064;52.046;4.800;2023-10-19T09:23:18;6.60;;;2.10;;
69789;SDS011;57064;52.046;4.800;2023-10-19T09:25:48;9.20;;;2.33;;
69789;SDS011;57064;52.046;4.800;2023-10-19T09:28:15;11.60;;;2.88;;
69789;SDS011;57064;52.046;4.800;2023-10-19T09:30:41;6.38;;;2.30;;
69789;SDS011;57064;52.046;4.800;2023-10-19T09:33:09;9.05;;;2.50;;
69789;SDS011;57064;52.046;4.800;2023-10-19T09:35:35;7.30;;;2.25;;
69789;SDS011;57064;52.046;4.800;2023-10-19T09:38:04;5.72;;;2.10;;
69789;SDS011;57064;52.046;4.800;2023-10-19T09:40:31;7.50;;;2.00;;
69789;SDS011;57064;52.046;4.800;2023-10-19T09:42:58;8.20;;;1.98;;
69789;SDS011;57064;52.046;4.800;2023-10-19T09:45:32;10.60;;;2.33;;
69789;SDS011;57064;52.046;4.800;2023-10-19T09:48:05;5.30;;;1.58;;
69789;SDS011;57064;52.046;4.800;2023-10-19T09:50:32;6.78;;;2.05;;
69789;SDS011;57064;52.046;4.800;2023-10-19T09:52:59;9.90;;;2.03;;
69789;SDS011;57064;52.046;4.800;2023-10-19T09:55:34;5.53;;;1.80;;
69789;SDS011;57064;52.046;4.800;2023-10-19T09:58:06;8.35;;;2.17;;
69789;SDS011;57064;52.046;4.800;2023-10-19T10:00:49;6.38;;;1.90;;
69789;SDS011;57064;52.046;4.800;2023-10-19T10:06:11;7.82;;;2.20;;
69789;SDS011;57064;52.046;4.800;2023-10-19T10:08:39;8.63;;;2.20;;
69789;SDS011;57064;52.046;4.800;2023-10-19T10:11:13;8.68;;;2.28;;
69789;SDS011;57064;52.046;4.800;2023-10-19T10:13:41;11.77;;;1.83;;
69789;SDS011;57064;52.046;4.800;2023-10-19T10:16:11;7.80;;;1.92;;
69789;SDS011;57064;52.046;4.800;2023-10-19T10:18:40;6.70;;;1.95;;
69789;SDS011;57064;52.046;4.800;2023-10-19T10:23:41;13.68;;;2.25;;
69789;SDS011;57064;52.046;4.800;2023-10-19T10:26:21;5.78;;;1.70;;
69789;SDS011;57064;52.046;4.800;2023-10-19T10:31:45;10.25;;;2.00;;
69789;SDS011;57064;52.046;4.800;2023-10-19T10:37:10;11.43;;;2.30;;
69789;SDS011;57064;52.046;4.800;2023-10-19T10:39:38;8.48;;;1.80;;
69789;SDS011;57064;52.046;4.800;2023-10-19T10:42:09;6.38;;;1.92;;
69789;SDS011;57064;52.046;4.800;2023-10-19T10:47:10;9.68;;;1.60;;
69789;SDS011;57064;52.046;4.800;2023-10-19T10:57:36;6.53;;;1.92;;
69789;SDS011;57064;52.046;4.800;2023-10-19T11:00:03;6.22;;;1.50;;
69789;SDS011;57064;52.046;4.800;2023-10-19T11:05:01;9.70;;;2.38;;
69789;SDS011;57064;52.046;4.800;2023-10-19T11:07:28;9.57;;;2.13;;
69789;SDS011;57064;52.046;4.800;2023-10-19T11:09:54;9.13;;;2.50;;
69789;SDS011;57064;52.046;4.800;2023-10-19T11:12:21;10.95;;;2.25;;
69789;SDS011;57064;52.046;4.800;2023-10-19T11:14:56;8.10;;;1.73;;
69789;SDS011;57064;52.046;4.800;2023-10-19T11:17:24;7.10;;;1.98;;
69789;SDS011;57064;52.046;4.800;2023-10-19T11:19:55;7.50;;;2.20;;
69789;SDS011;57064;52.046;4.800;2023-10-19T11:22:25;7.93;;;2.30;;
69789;SDS011;57064;52.046;4.800;2023-10-19T11:24:52;12.80;;;2.70;;
69789;SDS011;57064;52.046;4.800;2023-10-19T11:27:25;12.43;;;2.25;;
69789;SDS011;57064;52.046;4.800;2023-10-19T11:29:59;12.32;;;2.15;;
69789;SDS011;57064;52.046;4.800;2023-10-19T11:32:38;6.90;;;2.17;;
69789;SDS011;57064;52.046;4.800;2023-10-19T11:35:04;11.23;;;2.42;;
69789;SDS011;57064;52.046;4.800;2023-10-19T11:37:50;11.20;;;2.97;;
69789;SDS011;57064;52.046;4.800;2023-10-19T11:40:21;11.55;;;2.55;;
69789;SDS011;57064;52.046;4.800;2023-10-19T11:42:48;8.98;;;1.90;;
69789;SDS011;57064;52.046;4.800;2023-10-19T11:45:14;9.10;;;2.13;;
69789;SDS011;57064;52.046;4.800;2023-10-19T11:47:44;6.15;;;1.90;;
69789;SDS011;57064;52.046;4.800;2023-10-19T11:50:11;12.00;;;2.50;;
69789;SDS011;57064;52.046;4.800;2023-10-19T11:52:39;8.32;;;2.05;;
69789;SDS011;57064;52.046;4.800;2023-10-19T11:55:08;9.60;;;2.17;;
69789;SDS011;57064;52.046;4.800;2023-10-19T11:57:34;7.97;;;2.13;;
69789;SDS011;57064;52.046;4.800;2023-10-19T12:00:02;7.53;;;1.70;;
69789;SDS011;57064;52.046;4.800;2023-10-19T12:02:34;7.65;;;1.90;;
69789;SDS011;57064;52.046;4.800;2023-10-19T12:05:02;11.50;;;1.80;;
69789;SDS011;57064;52.046;4.800;2023-10-19T12:07:29;11.43;;;1.95;;
69789;SDS011;57064;52.046;4.800;2023-10-19T12:09:58;12.45;;;2.08;;
69789;SDS011;57064;52.046;4.800;2023-10-19T12:12:24;7.57;;;1.77;;
69789;SDS011;57064;52.046;4.800;2023-10-19T12:14:50;8.93;;;1.90;;
69789;SDS011;57064;52.046;4.800;2023-10-19T12:17:19;7.53;;;1.60;;
69789;SDS011;57064;52.046;4.800;2023-10-19T12:19:46;11.45;;;1.80;;
69789;SDS011;57064;52.046;4.800;2023-10-19T12:22:13;13.20;;;2.40;;
69789;SDS011;57064;52.046;4.800;2023-10-19T12:24:39;9.68;;;2.35;;
69789;SDS011;57064;52.046;4.800;2023-10-19T12:27:05;9.20;;;2.17;;
69789;SDS011;57064;52.046;4.800;2023-10-19T12:29:33;7.53;;;1.85;;
69789;SDS011;57064;52.046;4.800;2023-10-19T12:31:59;10.38;;;1.73;;
69789;SDS011;57064;52.046;4.800;2023-10-19T12:34:25;6.60;;;1.50;;
69789;SDS011;57064;52.046;4.800;2023-10-19T12:36:55;11.48;;;1.95;;
69789;SDS011;57064;52.046;4.800;2023-10-19T12:39:23;9.57;;;2.13;;
69789;SDS011;57064;52.046;4.800;2023-10-19T12:42:10;10.25;;;2.08;;
69789;SDS011;57064;52.046;4.800;2023-10-19T12:44:36;14.88;;;2.53;;
69789;SDS011;57064;52.046;4.800;2023-10-19T12:47:06;13.13;;;2.60;;
69789;SDS011;57064;52.046;4.800;2023-10-19T12:49:38;8.48;;;1.40;;
69789;SDS011;57064;52.046;4.800;2023-10-19T12:52:08;13.82;;;2.08;;
69789;SDS011;57064;52.046;4.800;2023-10-19T12:54:35;8.65;;;1.88;;
69789;SDS011;57064;52.046;4.800;2023-10-19T12:57:04;6.13;;;1.65;;
69789;SDS011;57064;52.046;4.800;2023-10-19T12:59:35;8.68;;;1.88;;
69789;SDS011;57064;52.046;4.800;2023-10-19T13:02:02;8.02;;;1.52;;
69789;SDS011;57064;52.046;4.800;2023-10-19T13:04:29;10.70;;;2.17;;
69789;SDS011;57064;52.046;4.800;2023-10-19T13:06:58;15.85;;;1.85;;
69789;SDS011;57064;52.046;4.800;2023-10-19T13:09:25;11.32;;;1.90;;
69789;SDS011;57064;52.046;4.800;2023-10-19T13:11:59;12.43;;;2.38;;
69789;SDS011;57064;52.046;4.800;2023-10-19T13:14:26;9.75;;;1.80;;
69789;SDS011;57064;52.046;4.800;2023-10-19T13:16:53;8.65;;;2.65;;
69789;SDS011;57064;52.046;4.800;2023-10-19T13:19:20;6.95;;;1.92;;
69789;SDS011;57064;52.046;4.800;2023-10-19T13:21:50;9.75;;;2.50;;
69789;SDS011;57064;52.046;4.800;2023-10-19T13:24:17;13.77;;;2.47;;
69789;SDS011;57064;52.046;4.800;2023-10-19T13:26:45;12.27;;;2.03;;
69789;SDS011;57064;52.046;4.800;2023-10-19T13:29:12;10.30;;;2.20;;
69789;SDS011;57064;52.046;4.800;2023-10-19T13:31:42;9.98;;;1.95;;
69789;SDS011;57064;52.046;4.800;2023-10-19T13:34:17;11.65;;;2.15;;
69789;SDS011;57064;52.046;4.800;2023-10-19T13:36:43;11.70;;;2.33;;
69789;SDS011;57064;52.046;4.800;2023-10-19T13:39:11;11.95;;;2.00;;
69789;SDS011;57064;52.046;4.800;2023-10-19T13:41:41;12.88;;;2.65;;
69789;SDS011;57064;52.046;4.800;2023-10-19T13:44:08;10.50;;;2.97;;
69789;SDS011;57064;52.046;4.800;2023-10-19T13:46:34;7.32;;;2.20;;
69789;SDS011;57064;52.046;4.800;2023-10-19T13:49:00;11.02;;;2.17;;
69789;SDS011;57064;52.046;4.800;2023-10-19T13:51:30;10.00;;;2.50;;
69789;SDS011;57064;52.046;4.800;2023-10-19T13:53:56;10.93;;;2.30;;
69789;SDS011;57064;52.046;4.800;2023-10-19T13:56:22;9.90;;;2.15;;
69789;SDS011;57064;52.046;4.800;2023-10-19T13:58:48;7.55;;;2.17;;
69789;SDS011;57064;52.046;4.800;2023-10-19T14:01:16;8.52;;;2.38;;
69789;SDS011;57064;52.046;4.800;2023-10-19T14:03:42;12.23;;;2.25;;
69789;SDS011;57064;52.046;4.800;2023-10-19T14:06:12;12.55;;;2.70;;
69789;SDS011;57064;52.046;4.800;2023-10-19T14:08:39;12.23;;;2.40;;
69789;SDS011;57064;52.046;4.800;2023-10-19T14:11:05;9.75;;;2.42;;
69789;SDS011;57064;52.046;4.800;2023-10-19T14:13:33;11.95;;;2.58;;
69789;SDS011;57064;52.046;4.800;2023-10-19T14:16:04;11.93;;;3.45;;
69789;SDS011;57064;52.046;4.800;2023-10-19T14:18:33;13.52;;;2.55;;
69789;SDS011;57064;52.046;4.800;2023-10-19T14:21:00;9.23;;;3.13;;
69789;SDS011;57064;52.046;4.800;2023-10-19T14:23:35;12.25;;;2.53;;
69789;SDS011;57064;52.046;4.800;2023-10-19T14:26:04;15.02;;;2.67;;
69789;SDS011;57064;52.046;4.800;2023-10-19T14:28:30;16.45;;;3.25;;
69789;SDS011;57064;52.046;4.800;2023-10-19T14:30:56;17.42;;;3.20;;
69789;SDS011;57064;52.046;4.800;2023-10-19T14:33:22;13.32;;;2.88;;
69789;SDS011;57064;52.046;4.800;2023-10-19T14:35:48;9.35;;;3.42;;
69789;SDS011;57064;52.046;4.800;2023-10-19T14:38:14;10.20;;;3.22;;
69789;SDS011;57064;52.046;4.800;2023-10-19T14:40:40;12.27;;;3.05;;
69789;SDS011;57064;52.046;4.800;2023-10-19T14:43:10;10.80;;;3.05;;
69789;SDS011;57064;52.046;4.800;2023-10-19T14:45:39;12.95;;;3.08;;
69789;SDS011;57064;52.046;4.800;2023-10-19T14:48:07;11.68;;;3.30;;
69789;SDS011;57064;52.046;4.800;2023-10-19T14:50:35;13.85;;;3.70;;
69789;SDS011;57064;52.046;4.800;2023-10-19T14:53:02;14.00;;;4.40;;
69789;SDS011;57064;52.046;4.800;2023-10-19T14:55:29;17.50;;;4.13;;
69789;SDS011;57064;52.046;4.800;2023-10-19T14:57:55;17.63;;;4.47;;
69789;SDS011;57064;52.046;4.800;2023-10-19T15:00:22;13.63;;;3.95;;
69789;SDS011;57064;52.046;4.800;2023-10-19T15:03:14;9.93;;;3.33;;
69789;SDS011;57064;52.046;4.800;2023-10-19T15:05:41;15.20;;;4.15;;
69789;SDS011;57064;52.046;4.800;2023-10-19T15:08:08;14.68;;;4.38;;
69789;SDS011;57064;52.046;4.800;2023-10-19T15:10:35;10.95;;;3.65;;
69789;SDS011;57064;52.046;4.800;2023-10-19T15:13:06;10.30;;;3.85;;
69789;SDS011;57064;52.046;4.800;2023-10-19T15:15:32;17.30;;;4.22;;
69789;SDS011;57064;52.046;4.800;2023-10-19T15:17:58;12.02;;;3.67;;
69789;SDS011;57064;52.046;4.800;2023-10-19T15:20:29;11.95;;;3.10;;
69789;SDS011;57064;52.046;4.800;2023-10-19T15:22:57;9.95;;;2.97;;
69789;SDS011;57064;52.046;4.800;2023-10-19T15:25:23;9.73;;;2.83;;